sensor_id;sensor_type;location;lat;lon;timestamp;pressure;altitude;pressure_sealevel;temperature;humidity
70053;BME280;57398;52.032;4.376;2022-11-15T00:01:00;101031.94;;;6.13;nan
70053;BME280;57398;52.032;4.376;2022-11-15T00:03:28;101034.16;;;6.16;nan
70053;BME280;57398;52.032;4.376;2022-11-15T00:06:01;101033.97;;;6.18;nan
70053;BME280;57398;52.032;4.376;2022-11-15T00:10:59;101018.94;;;6.21;nan
70053;BME280;57398;52.032;4.376;2022-11-15T00:13:28;101022.13;;;6.23;nan
70053;BME280;57398;52.032;4.376;2022-11-15T00:15:58;101025.50;;;6.24;nan
70053;BME280;57398;52.032;4.376;2022-11-15T00:18:26;101027.69;;;6.27;nan
70053;BME280;57398;52.032;4.376;2022-11-15T00:20:55;101030.03;;;6.22;nan
70053;BME280;57398;52.032;4.376;2022-11-15T00:23:23;101026.06;;;6.19;nan
70053;BME280;57398;52.032;4.376;2022-11-15T00:25:55;101032.63;;;6.22;nan
70053;BME280;57398;52.032;4.376;2022-11-15T00:28:24;101029.88;;;6.23;nan
70053;BME280;57398;52.032;4.376;2022-11-15T00:30:51;101020.94;;;6.26;nan
70053;BME280;57398;52.032;4.376;2022-11-15T00:33:20;101029.53;;;6.33;nan
70053;BME280;57398;52.032;4.376;2022-11-15T00:35:48;101013.06;;;6.34;nan
70053;BME280;57398;52.032;4.376;2022-11-15T00:38:16;101029.38;;;6.35;nan
70053;BME280;57398;52.032;4.376;2022-11-15T00:40:43;101031.41;;;6.39;nan
70053;BME280;57398;52.032;4.376;2022-11-15T00:43:11;101031.44;;;6.46;nan
70053;BME280;57398;52.032;4.376;2022-11-15T00:45:39;101026.28;;;6.46;nan
70053;BME280;57398;52.032;4.376;2022-11-15T00:50:35;101026.75;;;6.56;nan
70053;BME280;57398;52.032;4.376;2022-11-15T00:53:03;101021.16;;;6.53;nan
70053;BME280;57398;52.032;4.376;2022-11-15T00:55:31;101022.38;;;6.57;nan
70053;BME280;57398;52.032;4.376;2022-11-15T00:57:58;101027.78;;;6.62;nan
70053;BME280;57398;52.032;4.376;2022-11-15T01:00:26;101017.84;;;6.59;nan
70053;BME280;57398;52.032;4.376;2022-11-15T01:02:54;101034.97;;;6.66;nan
70053;BME280;57398;52.032;4.376;2022-11-15T01:05:22;101017.09;;;6.65;nan
70053;BME280;57398;52.032;4.376;2022-11-15T01:07:52;101007.38;;;6.67;nan
70053;BME280;57398;52.032;4.376;2022-11-15T01:10:20;101008.19;;;6.67;nan
70053;BME280;57398;52.032;4.376;2022-11-15T01:12:48;100993.72;;;6.73;nan
70053;BME280;57398;52.032;4.376;2022-11-15T01:15:16;100997.13;;;6.74;nan
70053;BME280;57398;52.032;4.376;2022-11-15T01:17:44;100995.50;;;6.72;nan
70053;BME280;57398;52.032;4.376;2022-11-15T01:20:13;100985.75;;;6.68;nan
70053;BME280;57398;52.032;4.376;2022-11-15T01:22:41;100990.16;;;6.74;nan
70053;BME280;57398;52.032;4.376;2022-11-15T01:25:10;100981.06;;;6.78;nan
70053;BME280;57398;52.032;4.376;2022-11-15T01:27:38;100981.22;;;6.77;nan
70053;BME280;57398;52.032;4.376;2022-11-15T01:30:06;100974.88;;;6.79;nan
70053;BME280;57398;52.032;4.376;2022-11-15T01:32:34;100975.31;;;6.83;nan
70053;BME280;57398;52.032;4.376;2022-11-15T01:35:02;100976.72;;;6.85;nan
70053;BME280;57398;52.032;4.376;2022-11-15T01:39:57;100965.03;;;6.89;nan
70053;BME280;57398;52.032;4.376;2022-11-15T01:42:27;100974.19;;;6.92;nan
70053;BME280;57398;52.032;4.376;2022-11-15T01:44:55;100975.94;;;6.91;nan
70053;BME280;57398;52.032;4.376;2022-11-15T01:47:24;100970.41;;;6.95;nan
70053;BME280;57398;52.032;4.376;2022-11-15T01:52:26;100962.28;;;6.98;nan
70053;BME280;57398;52.032;4.376;2022-11-15T01:55:01;100959.91;;;7.03;nan
70053;BME280;57398;52.032;4.376;2022-11-15T01:57:32;100961.53;;;7.04;nan
70053;BME280;57398;52.032;4.376;2022-11-15T02:00:00;100952.78;;;7.05;nan
70053;BME280;57398;52.032;4.376;2022-11-15T02:02:29;100948.81;;;7.09;nan
70053;BME280;57398;52.032;4.376;2022-11-15T02:04:57;100939.88;;;7.11;nan
70053;BME280;57398;52.032;4.376;2022-11-15T02:09:53;100937.72;;;7.15;nan
70053;BME280;57398;52.032;4.376;2022-11-15T02:12:22;100939.50;;;7.14;nan
70053;BME280;57398;52.032;4.376;2022-11-15T02:14:53;100933.97;;;7.18;nan
70053;BME280;57398;52.032;4.376;2022-11-15T02:17:32;100925.41;;;7.24;nan
70053;BME280;57398;52.032;4.376;2022-11-15T02:26:50;100918.91;;;7.34;nan
70053;BME280;57398;52.032;4.376;2022-11-15T02:29:30;100916.94;;;7.43;nan
70053;BME280;57398;52.032;4.376;2022-11-15T02:32:07;100915.56;;;7.47;nan
70053;BME280;57398;52.032;4.376;2022-11-15T02:34:46;100909.00;;;7.45;nan
70053;BME280;57398;52.032;4.376;2022-11-15T02:39:49;100897.50;;;7.54;nan
70053;BME280;57398;52.032;4.376;2022-11-15T02:42:21;100896.91;;;7.65;nan
70053;BME280;57398;52.032;4.376;2022-11-15T02:45:11;100905.06;;;7.69;nan
70053;BME280;57398;52.032;4.376;2022-11-15T02:47:44;100904.47;;;7.73;nan
70053;BME280;57398;52.032;4.376;2022-11-15T02:50:17;100902.47;;;7.75;nan
70053;BME280;57398;52.032;4.376;2022-11-15T02:52:48;100885.97;;;7.83;nan
70053;BME280;57398;52.032;4.376;2022-11-15T02:55:27;100900.88;;;7.94;nan
70053;BME280;57398;52.032;4.376;2022-11-15T02:58:09;100889.94;;;7.99;nan
70053;BME280;57398;52.032;4.376;2022-11-15T03:03:27;100886.97;;;8.15;nan
70053;BME280;57398;52.032;4.376;2022-11-15T03:06:02;100893.72;;;8.16;nan
70053;BME280;57398;52.032;4.376;2022-11-15T03:08:33;100891.56;;;8.20;nan
70053;BME280;57398;52.032;4.376;2022-11-15T03:11:08;100885.78;;;8.25;nan
70053;BME280;57398;52.032;4.376;2022-11-15T03:13:40;100892.72;;;8.31;nan
70053;BME280;57398;52.032;4.376;2022-11-15T03:16:15;100878.38;;;8.35;nan
70053;BME280;57398;52.032;4.376;2022-11-15T03:21:16;100891.09;;;8.56;nan
70053;BME280;57398;52.032;4.376;2022-11-15T03:23:47;100885.53;;;8.59;nan
70053;BME280;57398;52.032;4.376;2022-11-15T03:26:18;100887.31;;;8.59;nan
70053;BME280;57398;52.032;4.376;2022-11-15T03:28:50;100883.72;;;8.67;nan
70053;BME280;57398;52.032;4.376;2022-11-15T03:34:19;100881.84;;;8.87;nan
70053;BME280;57398;52.032;4.376;2022-11-15T03:36:49;100885.03;;;8.89;nan
70053;BME280;57398;52.032;4.376;2022-11-15T03:39:17;100880.84;;;8.88;nan
70053;BME280;57398;52.032;4.376;2022-11-15T03:44:21;100889.56;;;9.00;nan
70053;BME280;57398;52.032;4.376;2022-11-15T03:46:57;100890.69;;;9.11;nan
70053;BME280;57398;52.032;4.376;2022-11-15T03:49:33;100885.94;;;9.08;nan
70053;BME280;57398;52.032;4.376;2022-11-15T03:52:02;100878.91;;;9.15;nan
70053;BME280;57398;52.032;4.376;2022-11-15T03:54:31;100880.88;;;9.20;nan
70053;BME280;57398;52.032;4.376;2022-11-15T03:56:59;100883.28;;;9.21;nan
70053;BME280;57398;52.032;4.376;2022-11-15T03:59:27;100886.84;;;9.20;nan
70053;BME280;57398;52.032;4.376;2022-11-15T04:01:54;100890.00;;;9.29;nan
70053;BME280;57398;52.032;4.376;2022-11-15T04:04:22;100887.81;;;9.33;nan
70053;BME280;57398;52.032;4.376;2022-11-15T04:06:51;100880.63;;;9.35;nan
70053;BME280;57398;52.032;4.376;2022-11-15T04:09:18;100880.38;;;9.36;nan
70053;BME280;57398;52.032;4.376;2022-11-15T04:11:46;100878.63;;;9.37;nan
70053;BME280;57398;52.032;4.376;2022-11-15T04:14:14;100879.75;;;9.41;nan
70053;BME280;57398;52.032;4.376;2022-11-15T04:16:41;100869.59;;;9.46;nan
70053;BME280;57398;52.032;4.376;2022-11-15T04:19:09;100877.53;;;9.51;nan
70053;BME280;57398;52.032;4.376;2022-11-15T04:21:56;100870.31;;;9.53;nan
70053;BME280;57398;52.032;4.376;2022-11-15T04:24:40;100868.09;;;9.57;nan
70053;BME280;57398;52.032;4.376;2022-11-15T04:27:08;100863.34;;;9.54;nan
70053;BME280;57398;52.032;4.376;2022-11-15T04:32:05;100860.16;;;9.52;nan
70053;BME280;57398;52.032;4.376;2022-11-15T04:34:33;100864.31;;;9.53;nan
70053;BME280;57398;52.032;4.376;2022-11-15T04:37:02;100853.94;;;9.53;nan
70053;BME280;57398;52.032;4.376;2022-11-15T04:39:39;100866.09;;;9.59;nan
70053;BME280;57398;52.032;4.376;2022-11-15T04:42:07;100864.50;;;9.58;nan
70053;BME280;57398;52.032;4.376;2022-11-15T04:44:35;100876.09;;;9.55;nan
70053;BME280;57398;52.032;4.376;2022-11-15T04:47:03;100879.25;;;9.57;nan
70053;BME280;57398;52.032;4.376;2022-11-15T04:49:32;100882.88;;;9.56;nan
70053;BME280;57398;52.032;4.376;2022-11-15T04:51:59;100875.81;;;9.63;nan
70053;BME280;57398;52.032;4.376;2022-11-15T04:54:28;100887.41;;;9.61;nan
70053;BME280;57398;52.032;4.376;2022-11-15T04:56:56;100877.44;;;9.64;nan
70053;BME280;57398;52.032;4.376;2022-11-15T04:59:24;100883.41;;;9.65;nan
70053;BME280;57398;52.032;4.376;2022-11-15T05:01:51;100886.03;;;9.58;nan
70053;BME280;57398;52.032;4.376;2022-11-15T05:04:19;100897.75;;;9.68;nan
70053;BME280;57398;52.032;4.376;2022-11-15T05:06:47;100897.16;;;9.65;nan
70053;BME280;57398;52.032;4.376;2022-11-15T05:09:16;100891.78;;;9.67;nan
70053;BME280;57398;52.032;4.376;2022-11-15T05:11:46;100882.44;;;9.59;nan
70053;BME280;57398;52.032;4.376;2022-11-15T05:14:14;100883.44;;;9.58;nan
70053;BME280;57398;52.032;4.376;2022-11-15T05:16:42;100876.31;;;9.54;nan
70053;BME280;57398;52.032;4.376;2022-11-15T05:21:37;100878.16;;;9.47;nan
70053;BME280;57398;52.032;4.376;2022-11-15T05:24:05;100887.72;;;9.46;nan
70053;BME280;57398;52.032;4.376;2022-11-15T05:26:33;100888.91;;;9.43;nan
70053;BME280;57398;52.032;4.376;2022-11-15T05:29:02;100887.16;;;9.44;nan
70053;BME280;57398;52.032;4.376;2022-11-15T05:31:30;100887.19;;;9.37;nan
70053;BME280;57398;52.032;4.376;2022-11-15T05:33:58;100888.59;;;9.33;nan
70053;BME280;57398;52.032;4.376;2022-11-15T05:36:31;100879.00;;;9.34;nan
70053;BME280;57398;52.032;4.376;2022-11-15T05:41:32;100880.69;;;9.21;nan
70053;BME280;57398;52.032;4.376;2022-11-15T05:44:05;100873.72;;;9.15;nan
70053;BME280;57398;52.032;4.376;2022-11-15T05:46:35;100862.81;;;9.07;nan
70053;BME280;57398;52.032;4.376;2022-11-15T05:51:33;100860.81;;;9.09;nan
70053;BME280;57398;52.032;4.376;2022-11-15T05:54:01;100874.00;;;9.07;nan
70053;BME280;57398;52.032;4.376;2022-11-15T05:56:29;100875.75;;;9.07;nan
70053;BME280;57398;52.032;4.376;2022-11-15T05:58:58;100872.06;;;8.96;nan
70053;BME280;57398;52.032;4.376;2022-11-15T06:01:27;100876.41;;;8.95;nan
70053;BME280;57398;52.032;4.376;2022-11-15T06:03:55;100878.84;;;8.90;nan
70053;BME280;57398;52.032;4.376;2022-11-15T06:06:23;100885.25;;;8.81;nan
70053;BME280;57398;52.032;4.376;2022-11-15T06:08:50;100884.88;;;8.77;nan
70053;BME280;57398;52.032;4.376;2022-11-15T06:11:18;100878.88;;;8.77;nan
70053;BME280;57398;52.032;4.376;2022-11-15T06:13:45;100872.16;;;8.63;nan
70053;BME280;57398;52.032;4.376;2022-11-15T06:16:13;100875.16;;;8.59;nan
70053;BME280;57398;52.032;4.376;2022-11-15T06:21:09;100878.16;;;8.56;nan
70053;BME280;57398;52.032;4.376;2022-11-15T06:23:37;100880.53;;;8.58;nan
70053;BME280;57398;52.032;4.376;2022-11-15T06:26:06;100878.97;;;8.57;nan
70053;BME280;57398;52.032;4.376;2022-11-15T06:28:33;100879.34;;;8.54;nan
70053;BME280;57398;52.032;4.376;2022-11-15T06:31:05;100868.81;;;8.49;nan
70053;BME280;57398;52.032;4.376;2022-11-15T06:33:34;100871.59;;;8.47;nan
70053;BME280;57398;52.032;4.376;2022-11-15T06:36:04;100868.03;;;8.42;nan
70053;BME280;57398;52.032;4.376;2022-11-15T06:38:33;100874.19;;;8.47;nan
70053;BME280;57398;52.032;4.376;2022-11-15T06:41:01;100870.59;;;8.35;nan
70053;BME280;57398;52.032;4.376;2022-11-15T06:43:29;100886.34;;;8.40;nan
70053;BME280;57398;52.032;4.376;2022-11-15T06:45:57;100895.28;;;8.37;nan
70053;BME280;57398;52.032;4.376;2022-11-15T06:50:53;100893.31;;;8.33;nan
70053;BME280;57398;52.032;4.376;2022-11-15T06:53:22;100885.94;;;8.30;nan
70053;BME280;57398;52.032;4.376;2022-11-15T06:58:21;100890.13;;;8.24;nan
70053;BME280;57398;52.032;4.376;2022-11-15T07:00:48;100890.94;;;8.25;nan
70053;BME280;57398;52.032;4.376;2022-11-15T07:03:16;100892.72;;;8.17;nan
70053;BME280;57398;52.032;4.376;2022-11-15T07:05:50;100890.72;;;8.13;nan
70053;BME280;57398;52.032;4.376;2022-11-15T07:08:18;100886.16;;;8.15;nan
70053;BME280;57398;52.032;4.376;2022-11-15T07:10:48;100887.34;;;8.19;nan
70053;BME280;57398;52.032;4.376;2022-11-15T07:13:15;100885.97;;;8.16;nan
70053;BME280;57398;52.032;4.376;2022-11-15T07:15:43;100891.56;;;8.20;nan
70053;BME280;57398;52.032;4.376;2022-11-15T07:18:11;100884.16;;;8.17;nan
70053;BME280;57398;52.032;4.376;2022-11-15T07:20:38;100895.53;;;8.23;nan
70053;BME280;57398;52.032;4.376;2022-11-15T07:23:07;100893.13;;;8.28;nan
70053;BME280;57398;52.032;4.376;2022-11-15T07:25:34;100888.13;;;8.33;nan
70053;BME280;57398;52.032;4.376;2022-11-15T07:28:04;100885.34;;;8.28;nan
70053;BME280;57398;52.032;4.376;2022-11-15T07:30:31;100880.78;;;8.30;nan
70053;BME280;57398;52.032;4.376;2022-11-15T07:35:28;100892.53;;;8.19;nan
70053;BME280;57398;52.032;4.376;2022-11-15T07:40:25;100887.34;;;8.06;nan
70053;BME280;57398;52.032;4.376;2022-11-15T07:42:58;100886.97;;;8.02;nan
70053;BME280;57398;52.032;4.376;2022-11-15T07:45:27;100888.97;;;8.00;nan
70053;BME280;57398;52.032;4.376;2022-11-15T07:47:55;100888.75;;;8.02;nan
70053;BME280;57398;52.032;4.376;2022-11-15T07:50:23;100866.47;;;7.94;nan
70053;BME280;57398;52.032;4.376;2022-11-15T07:55:24;100868.28;;;8.00;nan
70053;BME280;57398;52.032;4.376;2022-11-15T07:57:52;100865.28;;;8.03;nan
70053;BME280;57398;52.032;4.376;2022-11-15T08:00:20;100873.22;;;8.08;nan
70053;BME280;57398;52.032;4.376;2022-11-15T08:02:49;100872.63;;;8.13;nan
70053;BME280;57398;52.032;4.376;2022-11-15T08:05:16;100863.88;;;8.14;nan
70053;BME280;57398;52.032;4.376;2022-11-15T08:07:44;100861.47;;;8.12;nan
70053;BME280;57398;52.032;4.376;2022-11-15T08:12:40;100862.84;;;8.28;nan
70053;BME280;57398;52.032;4.376;2022-11-15T08:15:08;100860.66;;;8.32;nan
70053;BME280;57398;52.032;4.376;2022-11-15T08:17:36;100859.25;;;8.43;nan
70053;BME280;57398;52.032;4.376;2022-11-15T08:20:06;100844.72;;;8.48;nan
70053;BME280;57398;52.032;4.376;2022-11-15T08:22:34;100853.25;;;8.55;nan
70053;BME280;57398;52.032;4.376;2022-11-15T08:25:01;100847.91;;;8.57;nan
70053;BME280;57398;52.032;4.376;2022-11-15T08:27:29;100850.03;;;8.67;nan
70053;BME280;57398;52.032;4.376;2022-11-15T08:29:57;100841.84;;;8.70;nan
70053;BME280;57398;52.032;4.376;2022-11-15T08:32:25;100845.03;;;8.72;nan
70053;BME280;57398;52.032;4.376;2022-11-15T08:34:52;100839.84;;;8.72;nan
70053;BME280;57398;52.032;4.376;2022-11-15T08:37:21;100835.47;;;8.72;nan
70053;BME280;57398;52.032;4.376;2022-11-15T08:39:49;100843.66;;;8.69;nan
70053;BME280;57398;52.032;4.376;2022-11-15T08:42:16;100829.91;;;8.69;nan
70053;BME280;57398;52.032;4.376;2022-11-15T08:47:13;100835.50;;;8.66;nan
70053;BME280;57398;52.032;4.376;2022-11-15T08:49:40;100838.47;;;8.69;nan
70053;BME280;57398;52.032;4.376;2022-11-15T08:52:08;100835.88;;;8.69;nan
70053;BME280;57398;52.032;4.376;2022-11-15T08:54:37;100829.91;;;8.75;nan
70053;BME280;57398;52.032;4.376;2022-11-15T08:57:05;100832.69;;;8.74;nan
70053;BME280;57398;52.032;4.376;2022-11-15T08:59:33;100828.09;;;8.76;nan
70053;BME280;57398;52.032;4.376;2022-11-15T09:02:00;100845.41;;;8.82;nan
70053;BME280;57398;52.032;4.376;2022-11-15T09:06:56;100842.19;;;8.87;nan
70053;BME280;57398;52.032;4.376;2022-11-15T09:09:23;100842.97;;;8.94;nan
70053;BME280;57398;52.032;4.376;2022-11-15T09:11:52;100834.75;;;8.97;nan
70053;BME280;57398;52.032;4.376;2022-11-15T09:14:26;100844.69;;;9.00;nan
70053;BME280;57398;52.032;4.376;2022-11-15T09:16:54;100831.75;;;9.00;nan
70053;BME280;57398;52.032;4.376;2022-11-15T09:19:21;100837.13;;;9.05;nan
70053;BME280;57398;52.032;4.376;2022-11-15T09:21:49;100832.53;;;9.07;nan
70053;BME280;57398;52.032;4.376;2022-11-15T09:24:17;100838.25;;;9.16;nan
70053;BME280;57398;52.032;4.376;2022-11-15T09:26:45;100835.84;;;9.21;nan
70053;BME280;57398;52.032;4.376;2022-11-15T09:29:14;100832.38;;;9.27;nan
70053;BME280;57398;52.032;4.376;2022-11-15T09:31:41;100830.59;;;9.28;nan
70053;BME280;57398;52.032;4.376;2022-11-15T09:34:09;100830.78;;;9.33;nan
70053;BME280;57398;52.032;4.376;2022-11-15T09:36:37;100823.97;;;9.32;nan
70053;BME280;57398;52.032;4.376;2022-11-15T09:39:05;100822.56;;;9.36;nan
70053;BME280;57398;52.032;4.376;2022-11-15T09:41:46;100820.53;;;9.44;nan
70053;BME280;57398;52.032;4.376;2022-11-15T09:44:38;100822.47;;;9.49;nan
70053;BME280;57398;52.032;4.376;2022-11-15T09:47:29;100802.47;;;9.56;nan
70053;BME280;57398;52.032;4.376;2022-11-15T09:50:08;100802.41;;;9.63;nan
70053;BME280;57398;52.032;4.376;2022-11-15T09:52:37;100791.41;;;9.68;nan
70053;BME280;57398;52.032;4.376;2022-11-15T09:55:09;100780.19;;;9.74;nan
70053;BME280;57398;52.032;4.376;2022-11-15T10:00:16;100773.34;;;9.79;nan
70053;BME280;57398;52.032;4.376;2022-11-15T10:03:10;100761.81;;;9.75;nan
70053;BME280;57398;52.032;4.376;2022-11-15T10:05:40;100761.75;;;9.82;nan
70053;BME280;57398;52.032;4.376;2022-11-15T10:08:22;100766.06;;;9.88;nan
70053;BME280;57398;52.032;4.376;2022-11-15T10:10:55;100763.19;;;9.96;nan
70053;BME280;57398;52.032;4.376;2022-11-15T10:13:46;100768.69;;;10.06;nan
70053;BME280;57398;52.032;4.376;2022-11-15T10:16:29;100769.91;;;10.22;nan
70053;BME280;57398;52.032;4.376;2022-11-15T10:19:08;100758.81;;;10.34;nan
70053;BME280;57398;52.032;4.376;2022-11-15T10:21:45;100750.47;;;10.32;nan
70053;BME280;57398;52.032;4.376;2022-11-15T10:24:19;100739.50;;;10.30;nan
70053;BME280;57398;52.032;4.376;2022-11-15T10:26:48;100733.00;;;10.39;nan
70053;BME280;57398;52.032;4.376;2022-11-15T10:29:19;100717.91;;;10.47;nan
70053;BME280;57398;52.032;4.376;2022-11-15T10:31:53;100706.41;;;10.55;nan
70053;BME280;57398;52.032;4.376;2022-11-15T10:34:22;100708.91;;;10.62;nan
70053;BME280;57398;52.032;4.376;2022-11-15T10:39:23;100704.25;;;10.52;nan
70053;BME280;57398;52.032;4.376;2022-11-15T10:41:51;100697.91;;;10.48;nan
70053;BME280;57398;52.032;4.376;2022-11-15T10:44:24;100697.00;;;10.42;nan
70053;BME280;57398;52.032;4.376;2022-11-15T10:47:23;100683.13;;;10.48;nan
70053;BME280;57398;52.032;4.376;2022-11-15T10:52:21;100694.94;;;10.63;nan
70053;BME280;57398;52.032;4.376;2022-11-15T10:54:53;100684.53;;;10.63;nan
70053;BME280;57398;52.032;4.376;2022-11-15T10:57:23;100689.06;;;10.67;nan
70053;BME280;57398;52.032;4.376;2022-11-15T10:59:53;100676.97;;;10.73;nan
70053;BME280;57398;52.032;4.376;2022-11-15T11:05:03;100676.06;;;10.67;nan
70053;BME280;57398;52.032;4.376;2022-11-15T11:07:33;100674.59;;;10.72;nan
70053;BME280;57398;52.032;4.376;2022-11-15T11:10:04;100657.66;;;10.69;nan
70053;BME280;57398;52.032;4.376;2022-11-15T11:12:48;100663.69;;;10.81;nan
70053;BME280;57398;52.032;4.376;2022-11-15T11:15:16;100655.91;;;10.93;nan
70053;BME280;57398;52.032;4.376;2022-11-15T11:17:57;100637.50;;;11.06;nan
70053;BME280;57398;52.032;4.376;2022-11-15T11:20:34;100630.47;;;10.95;nan
70053;BME280;57398;52.032;4.376;2022-11-15T11:23:19;100626.06;;;10.96;nan
70053;BME280;57398;52.032;4.376;2022-11-15T11:28:36;100615.66;;;10.96;nan
70053;BME280;57398;52.032;4.376;2022-11-15T11:31:14;100618.03;;;10.97;nan
70053;BME280;57398;52.032;4.376;2022-11-15T11:36:23;100611.94;;;11.03;nan
70053;BME280;57398;52.032;4.376;2022-11-15T11:39:00;100601.09;;;11.06;nan
70053;BME280;57398;52.032;4.376;2022-11-15T11:41:52;100604.22;;;11.08;nan
70053;BME280;57398;52.032;4.376;2022-11-15T11:44:29;100583.69;;;11.07;nan
70053;BME280;57398;52.032;4.376;2022-11-15T11:47:00;100586.16;;;11.14;nan
70053;BME280;57398;52.032;4.376;2022-11-15T11:49:36;100586.50;;;11.17;nan
70053;BME280;57398;52.032;4.376;2022-11-15T11:52:10;100570.88;;;11.17;nan
70053;BME280;57398;52.032;4.376;2022-11-15T11:54:49;100560.97;;;11.14;nan
70053;BME280;57398;52.032;4.376;2022-11-15T11:57:28;100567.50;;;11.17;nan
70053;BME280;57398;52.032;4.376;2022-11-15T12:00:02;100562.78;;;11.14;nan
70053;BME280;57398;52.032;4.376;2022-11-15T12:02:35;100558.13;;;11.16;nan
70053;BME280;57398;52.032;4.376;2022-11-15T12:05:13;100551.03;;;11.11;nan
70053;BME280;57398;52.032;4.376;2022-11-15T12:07:45;100544.56;;;11.14;nan
70053;BME280;57398;52.032;4.376;2022-11-15T12:10:21;100544.31;;;11.15;nan
70053;BME280;57398;52.032;4.376;2022-11-15T12:12:58;100535.16;;;11.24;nan
70053;BME280;57398;52.032;4.376;2022-11-15T12:15:29;100521.47;;;11.29;nan
70053;BME280;57398;52.032;4.376;2022-11-15T12:18:00;100520.78;;;11.33;nan
70053;BME280;57398;52.032;4.376;2022-11-15T12:20:34;100526.41;;;11.42;nan
70053;BME280;57398;52.032;4.376;2022-11-15T12:25:47;100501.59;;;11.51;nan
70053;BME280;57398;52.032;4.376;2022-11-15T12:28:20;100500.34;;;11.54;nan
70053;BME280;57398;52.032;4.376;2022-11-15T12:30:55;100498.88;;;11.58;nan
70053;BME280;57398;52.032;4.376;2022-11-15T12:33:30;100497.59;;;11.61;nan
70053;BME280;57398;52.032;4.376;2022-11-15T12:36:02;100494.00;;;11.62;nan
70053;BME280;57398;52.032;4.376;2022-11-15T12:38:51;100484.38;;;11.62;nan
70053;BME280;57398;52.032;4.376;2022-11-15T12:41:20;100478.38;;;11.62;nan
70053;BME280;57398;52.032;4.376;2022-11-15T12:48:51;100466.88;;;11.58;nan
70053;BME280;57398;52.032;4.376;2022-11-15T12:51:22;100470.47;;;11.57;nan
70053;BME280;57398;52.032;4.376;2022-11-15T12:53:50;100457.25;;;11.58;nan
70053;BME280;57398;52.032;4.376;2022-11-15T12:56:23;100455.34;;;11.53;nan
70053;BME280;57398;52.032;4.376;2022-11-15T12:58:56;100454.22;;;11.49;nan
70053;BME280;57398;52.032;4.376;2022-11-15T13:01:55;100444.78;;;11.43;nan
70053;BME280;57398;52.032;4.376;2022-11-15T13:04:28;100435.84;;;11.39;nan
70053;BME280;57398;52.032;4.376;2022-11-15T13:06:59;100441.63;;;11.41;nan
70053;BME280;57398;52.032;4.376;2022-11-15T13:09:50;100429.94;;;11.44;nan
70053;BME280;57398;52.032;4.376;2022-11-15T13:12:49;100429.25;;;11.48;nan
70053;BME280;57398;52.032;4.376;2022-11-15T13:15:40;100424.13;;;11.53;nan
70053;BME280;57398;52.032;4.376;2022-11-15T13:18:37;100415.13;;;11.44;nan
70053;BME280;57398;52.032;4.376;2022-11-15T13:21:19;100412.66;;;11.38;nan
70053;BME280;57398;52.032;4.376;2022-11-15T13:29:14;100392.81;;;11.31;nan
70053;BME280;57398;52.032;4.376;2022-11-15T13:31:43;100390.22;;;11.31;nan
70053;BME280;57398;52.032;4.376;2022-11-15T13:34:29;100389.19;;;11.32;nan
70053;BME280;57398;52.032;4.376;2022-11-15T13:37:28;100381.38;;;11.32;nan
70053;BME280;57398;52.032;4.376;2022-11-15T13:40:18;100382.16;;;11.33;nan
70053;BME280;57398;52.032;4.376;2022-11-15T13:42:47;100369.41;;;11.31;nan
70053;BME280;57398;52.032;4.376;2022-11-15T13:45:17;100360.81;;;11.31;nan
70053;BME280;57398;52.032;4.376;2022-11-15T13:47:51;100356.66;;;11.30;nan
70053;BME280;57398;52.032;4.376;2022-11-15T13:50:21;100351.75;;;11.33;nan
70053;BME280;57398;52.032;4.376;2022-11-15T13:52:51;100353.00;;;11.31;nan
70053;BME280;57398;52.032;4.376;2022-11-15T13:55:22;100329.16;;;11.34;nan
70053;BME280;57398;52.032;4.376;2022-11-15T13:57:54;100330.94;;;11.33;nan
70053;BME280;57398;52.032;4.376;2022-11-15T14:00:33;100323.94;;;11.34;nan
70053;BME280;57398;52.032;4.376;2022-11-15T14:03:07;100313.78;;;11.32;nan
70053;BME280;57398;52.032;4.376;2022-11-15T14:05:35;100310.63;;;11.30;nan
70053;BME280;57398;52.032;4.376;2022-11-15T14:08:20;100302.28;;;11.28;nan
70053;BME280;57398;52.032;4.376;2022-11-15T14:11:05;100298.97;;;11.33;nan
70053;BME280;57398;52.032;4.376;2022-11-15T14:13:33;100296.13;;;11.35;nan
70053;BME280;57398;52.032;4.376;2022-11-15T14:16:16;100299.75;;;11.33;nan
70053;BME280;57398;52.032;4.376;2022-11-15T14:18:47;100293.22;;;11.31;nan
70053;BME280;57398;52.032;4.376;2022-11-15T14:21:16;100297.06;;;11.28;nan
70053;BME280;57398;52.032;4.376;2022-11-15T14:23:45;100287.94;;;11.26;nan
70053;BME280;57398;52.032;4.376;2022-11-15T14:28:55;100276.41;;;11.22;nan
70053;BME280;57398;52.032;4.376;2022-11-15T14:31:23;100281.63;;;11.22;nan
70053;BME280;57398;52.032;4.376;2022-11-15T14:33:51;100281.16;;;11.25;nan
70053;BME280;57398;52.032;4.376;2022-11-15T14:36:20;100270.91;;;11.18;nan
70053;BME280;57398;52.032;4.376;2022-11-15T14:38:48;100270.09;;;11.18;nan
70053;BME280;57398;52.032;4.376;2022-11-15T14:41:21;100267.28;;;11.19;nan
70053;BME280;57398;52.032;4.376;2022-11-15T14:43:51;100259.97;;;11.16;nan
70053;BME280;57398;52.032;4.376;2022-11-15T14:46:19;100255.78;;;11.15;nan
70053;BME280;57398;52.032;4.376;2022-11-15T14:48:46;100258.16;;;11.17;nan
70053;BME280;57398;52.032;4.376;2022-11-15T14:51:16;100251.38;;;11.16;nan
70053;BME280;57398;52.032;4.376;2022-11-15T14:53:45;100255.94;;;11.08;nan
70053;BME280;57398;52.032;4.376;2022-11-15T14:56:13;100247.59;;;11.06;nan
70053;BME280;57398;52.032;4.376;2022-11-15T14:58:42;100253.59;;;11.07;nan
70053;BME280;57398;52.032;4.376;2022-11-15T15:01:14;100249.72;;;11.09;nan
70053;BME280;57398;52.032;4.376;2022-11-15T15:03:43;100229.94;;;11.08;nan
70053;BME280;57398;52.032;4.376;2022-11-15T15:06:11;100241.44;;;11.13;nan
70053;BME280;57398;52.032;4.376;2022-11-15T15:08:43;100232.09;;;11.11;nan
70053;BME280;57398;52.032;4.376;2022-11-15T15:11:14;100227.09;;;11.10;nan
70053;BME280;57398;52.032;4.376;2022-11-15T15:16:09;100226.81;;;11.06;nan
70053;BME280;57398;52.032;4.376;2022-11-15T15:18:38;100224.50;;;11.10;nan